Wellington, CO

6:19 AM MDT on July 24, 2016 (GMT -0600)
La Luna Dairy | | Change Station

Elev 5250 ft 40.72 °N, 105.02 °W | Updated 26 seconds ago

Partly Cloudy
Partly Cloudy
65.0 °F
Feels Like 65.0 °F
N
3.0
Wind Variable Wind from NW
Gusts 14.0 mph

Today
High -- | Low -- °F
--% Chance of Precip.
Yesterday
High -- | Low -- °F
Precip. -- in
Pressure 29.96 in
Visibility 10.0 miles
Clouds Few 15000 ft
Dew Point 54 °F
Humidity 68%
Rainfall Not available.
Snow Depth Not available.
5:49 AM 8:22 PM
Waning Gibbous, 77% visible
METAR KFEW 241158Z AUTO 15008KT 10SM FEW150 18/09 A3020 RMK AO2 LTG DSNT NE RAB1058E04SHRAB04E31 SLP143 T01830093 10216 20154 58004 $
Pressure 29.96 in
Visibility 10.0 miles
Clouds Few 15000 ft
Dew Point 54 °F
Humidity 68%
Rainfall Not available.
Snow Depth Not available.
5:49 AM 8:22 PM
Waning Gibbous, 77% visible
METAR KFEW 241158Z AUTO 15008KT 10SM FEW150 18/09 A3020 RMK AO2 LTG DSNT NE RAB1058E04SHRAB04E31 SLP143 T01830093 10216 20154 58004 $

10-Day Weather Forecast

Almanac

Astronomy

Jul. 24, 2016 Rise Set
Actual Time
Civil Twilight
Nautical Twilight
Astronomical Twilight
Moon
Length of Visible Light
Length of Day
Tomorrow will be .
, % of the Moon is Illuminated

Today's Extremes

State Highs State Lows

Community

WunderPhotos

Upload Photos

1,927,053 photos uploaded!

WunderBlog® & News

Nearby

Air Quality

  Air Quality AQ Index Pollutant
Not available.

Snow Depth

Station Depth Elevation

Earthquake Activity

City Distance Mag. Time & Date
Minimum magnitude displayed is 2.5.

Coastal Water Temperatures

Place Temperature

Stations

Nearby Weather Stations

Station Location Temp. Windchill Dew Point Humidity Wind Precip. Elev Updated Type
                   

Watches & Warnings

There are currently no watches in effect.